This is the latest recevied weather packets stored in our database for station/object KA0WKG. If no packets are shown the sender has not sent any weather packets the latest 10 day(s).
| Time | Temp. | Humidity | Pressure | Rain* | Wind** | Luminosity | Snow |
|---|---|---|---|---|---|---|---|
| 1778107208 | 10.56° C | 50% | 1017.5 hPa | 0 mm | - | - | - |
| 1778104206 | 10.56° C | 51% | 1017.9 hPa | 0 mm | - | - | - |
| 1778103006 | 10° C | 54% | 1018.2 hPa | 0 mm | - | - | - |
| 1778102706 | 10° C | 53% | 1018.2 hPa | 0 mm | - | - | - |
| 1778099408 | 10° C | 54% | 1019 hPa | 0 mm | - | - | - |
| 1778098206 | 9.44° C | 52% | 1019.1 hPa | 0 mm | - | - | - |
| 1778097006 | 9.44° C | 56% | 1019.2 hPa | 0 mm | - | - | - |
| 1778092806 | 8.33° C | 61% | 1019.6 hPa | 0 mm | - | - | - |
| 1778092207 | 8.33° C | 64% | 1019.7 hPa | 0 mm | - | - | - |
| 1778091906 | 8.33° C | 65% | 1019.7 hPa | 0 mm | - | - | - |
| 1778091306 | 8.33° C | 71% | 1019.9 hPa | 0 mm | - | - | - |
| 1778087405 | 7.22° C | 75% | 1020 hPa | 0 mm | - | - | - |
| 1778086805 | 7.22° C | 80% | 1020.2 hPa | 0 mm | - | - | - |
| 1778080205 | 5° C | 93% | 1019.4 hPa | 0 mm | - | - | - |
| 1778076905 | 4.44° C | 95% | 1019.4 hPa | 0 mm | - | - | - |
| 1778076004 | 3.89° C | 95% | 1019.2 hPa | 0 mm | - | - | - |
| 1778068505 | 1.67° C | 97% | 1017.9 hPa | 0 mm | - | - | - |
| 1778065505 | 2.22° C | 96% | 1017.6 hPa | 0 mm | - | - | - |
| 1778064004 | 3.33° C | 96% | 1017.4 hPa | 0 mm | - | - | - |
| 1778062206 | 3.89° C | 97% | 1017.1 hPa | 0 mm | - | - | - |
| 1778061905 | 3.89° C | 97% | 1017.1 hPa | 0 mm | - | - | - |
| 1778061004 | 3.89° C | 97% | 1017 hPa | 0 mm | - | - | - |
| 1778058305 | 3.33° C | 96% | 1016.6 hPa | 0 mm | - | - | - |
| 1778053805 | 3.33° C | 96% | 1016.7 hPa | 0.25 mm | - | - | - |
| 1778052904 | 3.33° C | 96% | 1016.6 hPa | 0.25 mm | - | - | - |
* Rain latest hour (hover to see other rain measurements)
** Current wind speed in m/s (hover to see current wind gust speed)